Terminal Aerodrome Forecast
Issued by NWS Lake Charles, LA

Home | Current Version | Previous Version | Text Only | Print | Product List | Glossary On
Versions: 1 2 3 4 5 6 7 8 9 10 11 12 13 14 15 16 17 18
000
FTUS44 KLCH 260520
TAFLCH
TAF
KLCH 260520Z 2606/2706 05006KT P6SM BKN035
     FM260800 06006KT P6SM SCT030 BKN200
     FM261600 08010KT P6SM VCSH SCT025 BKN040
     FM270100 10005KT P6SM FEW050 BKN200=

USA.gov is the U.S. government's official web portal to all federal, state and local government web resources and services.